Terminal Aerodrome Forecast
Issued by NWS

Home | Current Version | Previous Version | Graphics & Text | Print | Product List | Glossary On
Versions: 1 2 3 4 5 6 7 8 9 10 11 12 13 14 15 16 17 18
449
FTUS43 KUNR 231155
TAFGCC
TAF
KGCC 231155Z 2312/2412 35008KT 2SM BR OVC015
      TEMPO 2312/2316 4SM -SHRA OVC008
     FM231600 35016KT 2SM -SHRA BR OVC007
     FM240100 35013KT P6SM OVC008=

USA.gov is the U.S. government's official web portal to all federal, state and local government web resources and services.